Time;durP1;ratioP1;P1;durP2;ratioP2;P2;SDS_P1;SDS_P2;PMS_P1;PMS_P2;Temp;Humidity;BMP_temperature;BMP_pressure;BME280_temperature;BME280_humidity;BME280_pressure;Samples;Min_cycle;Max_cycle;Signal;HPM_P1;HPM_P2
2022/05/01 00:00:50;;;;;;;;;1.00;1.00;19.30;99.90;;;;;;5038480;28;9006;-72
2022/05/01 00:03:32;;;;;;;;;4.00;2.00;19.20;99.90;;;;;;5048230;28;9176;-72
2022/05/01 00:06:10;;;;;;;;;1.00;1.00;19.20;99.90;;;;;;5053912;28;8830;-66
2022/05/01 00:08:43;;;;;;;;;3.50;2.00;19.30;99.90;;;;;;5056683;28;9039;-67
2022/05/01 00:11:14;;;;;;;;;4.00;2.00;19.40;99.90;;;;;;5036393;28;9055;-76
2022/05/01 00:13:50;;;;;;;;;1.00;1.00;19.30;99.90;;;;;;5037246;28;8900;-72
2022/05/01 00:16:21;;;;;;;;;1.75;0.00;19.20;99.90;;;;;;5038905;28;9078;-74
2022/05/01 00:18:52;;;;;;;;;1.00;1.00;19.30;99.90;;;;;;5053611;28;8856;-74
2022/05/01 00:21:22;;;;;;;;;1.00;1.00;19.10;99.90;;;;;;5014952;28;8830;-73
2022/05/01 00:23:54;;;;;;;;;1.00;1.00;19.10;99.90;;;;;;5054883;28;9106;-73
2022/05/01 00:26:24;;;;;;;;;3.00;1.00;19.20;99.90;;;;;;5028667;28;9167;-65
2022/05/01 00:28:55;;;;;;;;;2.00;2.00;19.20;99.90;;;;;;5047624;28;9001;-65
2022/05/01 00:31:28;;;;;;;;;1.00;1.00;19.10;99.90;;;;;;5047111;28;9157;-73
2022/05/01 00:36:50;;;;;;;;;1.00;1.00;19.00;99.90;;;;;;5038631;28;9207;-66
2022/05/01 00:39:21;;;;;;;;;0.00;0.00;19.00;99.90;;;;;;5048394;28;9334;-72
2022/05/01 00:41:53;;;;;;;;;3.00;1.00;18.80;99.90;;;;;;5047666;28;9355;-73
2022/05/01 00:44:25;;;;;;;;;2.00;1.00;18.80;99.90;;;;;;5039306;28;9288;-66
2022/05/01 00:46:59;;;;;;;;;1.00;1.00;18.80;99.90;;;;;;5039131;28;9106;-65
2022/05/01 00:49:32;;;;;;;;;1.00;1.00;18.80;99.90;;;;;;5034397;28;9373;-73
2022/05/01 00:52:10;;;;;;;;;0.00;0.00;18.80;99.90;;;;;;5056936;28;9308;-74
2022/05/01 00:54:44;;;;;;;;;1.67;1.67;18.80;99.90;;;;;;5033869;28;9314;-65
2022/05/01 00:57:16;;;;;;;;;1.67;1.67;18.80;99.90;;;;;;5017456;28;9458;-65
2022/05/01 00:59:50;;;;;;;;;3.00;1.67;18.80;99.90;;;;;;5055976;28;9476;-66
2022/05/01 01:02:23;;;;;;;;;1.00;1.00;18.60;99.90;;;;;;5038713;28;9467;-66
2022/05/01 01:04:54;;;;;;;;;1.00;1.00;18.50;99.90;;;;;;5057065;28;9478;-72
2022/05/01 01:07:28;;;;;;;;;1.33;1.33;18.50;99.90;;;;;;5055453;28;9317;-73
2022/05/01 01:09:59;;;;;;;;;1.50;1.50;18.50;99.90;;;;;;5034308;28;9376;-73
2022/05/01 01:15:29;;;;;;;;;1.00;1.00;18.40;99.90;;;;;;5040832;28;10428;-65
2022/05/01 01:17:59;;;;;;;;;0.25;0.25;18.50;99.90;;;;;;5056136;28;9712;-67
2022/05/01 01:20:34;;;;;;;;;1.00;1.00;18.40;99.90;;;;;;5053102;28;9745;-65
2022/05/01 01:23:04;;;;;;;;;1.75;1.75;18.30;99.90;;;;;;5051351;28;10206;-66
2022/05/01 01:25:36;;;;;;;;;1.00;1.00;18.30;99.90;;;;;;5032595;28;10109;-66
2022/05/01 01:28:11;;;;;;;;;1.75;1.75;18.20;99.90;;;;;;5052365;28;10301;-64
2022/05/01 01:33:36;;;;;;;;;1.75;1.75;18.20;99.90;;;;;;5043769;28;10731;-66
2022/05/01 01:36:07;;;;;;;;;12.25;12.00;18.20;99.90;;;;;;5034700;28;11136;-66
2022/05/01 01:38:40;;;;;;;;;12.50;12.50;18.10;99.90;;;;;;5054173;28;11467;-65
2022/05/01 01:41:13;;;;;;;;;13.50;13.50;18.10;99.90;;;;;;5034813;28;11661;-73
2022/05/01 01:43:47;;;;;;;;;16.25;16.25;18.10;99.90;;;;;;5056813;28;11487;-73
2022/05/01 01:46:19;;;;;;;;;11.00;10.50;18.00;99.90;;;;;;5057760;28;11496;-71
2022/05/01 01:48:53;;;;;;;;;10.25;10.25;17.90;99.90;;;;;;5056165;28;11177;-72
2022/05/01 01:51:26;;;;;;;;;6.00;6.00;17.80;99.90;;;;;;5035394;28;11828;-66
2022/05/01 01:53:57;;;;;;;;;6.50;5.50;17.90;99.90;;;;;;5041806;28;10971;-66
2022/05/01 01:56:32;;;;;;;;;3.25;3.25;17.90;99.90;;;;;;5049955;28;10440;-73
2022/05/01 01:59:03;;;;;;;;;2.50;2.50;17.80;99.90;;;;;;5052195;28;9838;-72
2022/05/01 02:01:33;;;;;;;;;2.50;2.50;17.70;99.90;;;;;;5039532;28;11153;-73
2022/05/01 02:04:05;;;;;;;;;1.50;1.50;17.70;99.90;;;;;;5052809;28;10231;-73
2022/05/01 02:06:35;;;;;;;;;3.50;3.00;17.80;99.90;;;;;;5042771;28;10270;-72
2022/05/01 02:09:07;;;;;;;;;2.25;2.25;17.80;99.90;;;;;;5036912;28;11291;-73
2022/05/01 02:11:40;;;;;;;;;2.25;2.25;17.80;99.90;;;;;;5049020;28;10988;-67
2022/05/01 02:14:11;;;;;;;;;1.50;1.50;17.70;99.90;;;;;;5040375;28;10042;-66
2022/05/01 02:16:42;;;;;;;;;1.25;1.25;17.60;99.90;;;;;;5057396;28;10388;-65
2022/05/01 02:19:15;;;;;;;;;6.25;4.75;17.60;99.90;;;;;;5012616;28;10124;-73
2022/05/01 02:21:47;;;;;;;;;4.00;2.50;17.50;99.90;;;;;;5038234;28;10212;-72
2022/05/01 02:24:19;;;;;;;;;3.75;3.75;17.50;99.90;;;;;;5034855;28;10478;-66
2022/05/01 02:26:51;;;;;;;;;4.50;3.00;17.40;99.90;;;;;;5053091;28;10448;-67
2022/05/01 02:29:23;;;;;;;;;5.50;4.00;17.30;99.90;;;;;;5035928;28;10368;-65
2022/05/01 02:31:53;;;;;;;;;6.25;6.25;17.20;99.90;;;;;;5041547;28;10890;-71
2022/05/01 02:34:24;;;;;;;;;8.00;8.00;17.20;99.90;;;;;;5036749;28;11064;-73
2022/05/01 02:36:57;;;;;;;;;13.50;13.50;17.10;99.90;;;;;;5044828;28;12865;-73
2022/05/01 02:39:30;;;;;;;;;16.75;15.75;17.00;99.90;;;;;;5056334;28;11477;-65
2022/05/01 02:42:02;;;;;;;;;17.00;17.00;17.00;99.90;;;;;;5043841;28;11483;-65
2022/05/01 02:44:35;;;;;;;;;17.75;17.75;17.00;99.90;;;;;;5055061;28;11453;-73
2022/05/01 02:47:08;;;;;;;;;19.50;19.25;17.00;99.90;;;;;;5051499;28;11505;-65
2022/05/01 02:49:43;;;;;;;;;18.25;18.25;17.00;99.90;;;;;;5051765;28;11501;-66
2022/05/01 02:52:14;;;;;;;;;13.00;13.00;16.80;99.90;;;;;;5035855;28;11505;-65
2022/05/01 02:54:46;;;;;;;;;14.50;14.50;16.80;99.90;;;;;;5048964;28;11502;-67
2022/05/01 02:57:18;;;;;;;;;10.75;10.75;16.80;99.90;;;;;;5050909;28;11095;-65
2022/05/01 02:59:48;;;;;;;;;4.75;4.75;16.80;99.90;;;;;;5059676;28;11160;-66
2022/05/01 03:02:21;;;;;;;;;4.00;4.00;16.70;99.90;;;;;;5041811;28;10771;-66
2022/05/01 03:04:52;;;;;;;;;3.00;3.00;16.70;99.90;;;;;;5054718;28;10725;-66
2022/05/01 03:07:23;;;;;;;;;4.00;4.00;16.70;99.90;;;;;;5019850;28;10722;-66
2022/05/01 03:09:54;;;;;;;;;3.25;3.25;16.70;99.90;;;;;;5047574;28;10554;-66
2022/05/01 03:12:25;;;;;;;;;4.67;4.67;16.60;99.90;;;;;;5050853;28;10572;-67
2022/05/01 03:14:57;;;;;;;;;5.25;4.50;16.60;99.90;;;;;;5056429;28;10701;-66
2022/05/01 03:22:10;;;;;;;;;4.50;4.00;16.50;99.90;;;;;;5055522;28;10658;-66
2022/05/01 03:23:13;;;;;;;;;3.25;3.25;16.40;99.90;;;;;;5057107;28;10594;-74
2022/05/01 03:25:45;;;;;;;;;4.25;4.25;16.30;99.90;;;;;;5035306;28;10404;-65
2022/05/01 03:28:17;;;;;;;;;4.75;3.00;16.30;99.90;;;;;;5023279;28;10678;-66
2022/05/01 03:30:47;;;;;;;;;3.75;3.75;16.40;99.90;;;;;;5053809;28;10768;-73
2022/05/01 03:33:20;;;;;;;;;4.50;4.50;16.30;99.90;;;;;;5059294;28;10593;-74
2022/05/01 03:35:51;;;;;;;;;7.25;5.75;16.30;99.90;;;;;;5034275;28;10682;-67
2022/05/01 03:38:22;;;;;;;;;4.00;4.00;16.20;99.90;;;;;;5056411;28;10960;-66
2022/05/01 03:40:53;;;;;;;;;4.50;4.50;16.10;99.90;;;;;;5031356;28;10674;-75
2022/05/01 03:43:26;;;;;;;;;6.00;4.25;16.10;99.90;;;;;;5024715;28;10801;-74
2022/05/01 03:45:57;;;;;;;;;4.25;4.25;16.10;99.90;;;;;;5051305;28;11552;-66
2022/05/01 03:48:28;;;;;;;;;4.25;4.25;16.10;99.90;;;;;;5056657;28;11134;-67
2022/05/01 03:50:59;;;;;;;;;4.25;4.25;16.00;99.90;;;;;;5055330;28;10841;-67
2022/05/01 03:53:30;;;;;;;;;4.00;4.00;16.00;99.90;;;;;;5051160;28;10961;-67
2022/05/01 03:56:02;;;;;;;;;4.50;4.50;15.90;99.90;;;;;;5027551;28;10855;-66
2022/05/01 03:58:53;;;;;;;;;4.25;4.25;15.90;99.90;;;;;;5051245;28;10915;-66
2022/05/01 04:01:24;;;;;;;;;5.50;4.00;15.80;99.90;;;;;;5047896;28;10972;-65
2022/05/01 04:03:56;;;;;;;;;3.50;3.50;15.80;99.90;;;;;;5035199;28;10842;-65
2022/05/01 04:06:28;;;;;;;;;4.75;4.75;15.70;99.90;;;;;;5049158;28;10926;-75
2022/05/01 04:09:00;;;;;;;;;3.00;3.00;15.60;99.90;;;;;;5049335;28;11375;-73
2022/05/01 04:11:30;;;;;;;;;4.25;4.25;15.60;99.90;;;;;;5035466;28;10914;-74
2022/05/01 04:14:02;;;;;;;;;6.00;5.00;15.60;99.90;;;;;;5054998;28;11079;-74
2022/05/01 04:16:38;;;;;;;;;5.50;5.50;15.60;99.90;;;;;;5052016;28;11104;-66
2022/05/01 04:19:10;;;;;;;;;5.25;5.00;15.60;99.90;;;;;;5049248;28;10813;-73
2022/05/01 04:21:42;;;;;;;;;4.50;4.50;15.60;99.90;;;;;;5043782;28;10934;-74
2022/05/01 04:24:14;;;;;;;;;10.00;5.75;15.50;99.90;;;;;;5046073;28;11140;-74
2022/05/01 04:26:48;;;;;;;;;5.50;4.50;15.50;99.90;;;;;;5034384;28;11011;-74
2022/05/01 04:29:39;;;;;;;;;4.00;4.00;15.50;99.90;;;;;;5026439;28;11117;-66
2022/05/01 04:32:16;;;;;;;;;5.25;5.25;15.50;99.90;;;;;;5039535;28;11429;-65
2022/05/01 04:34:48;;;;;;;;;5.25;5.25;15.50;99.90;;;;;;5040304;28;12254;-65
2022/05/01 04:37:20;;;;;;;;;4.00;4.00;15.40;99.90;;;;;;5038509;28;11570;-66
2022/05/01 04:39:52;;;;;;;;;4.00;4.00;15.40;99.90;;;;;;5039831;28;11427;-66
2022/05/01 04:42:23;;;;;;;;;4.25;4.00;15.30;99.90;;;;;;5035175;28;11439;-65
2022/05/01 04:44:54;;;;;;;;;3.00;3.00;15.30;99.90;;;;;;5040195;28;11461;-74
2022/05/01 04:47:25;;;;;;;;;4.00;4.00;15.20;99.90;;;;;;5053047;28;11461;-72
2022/05/01 04:49:55;;;;;;;;;5.00;5.00;15.30;99.90;;;;;;5059298;28;11403;-66
2022/05/01 04:52:29;;;;;;;;;6.00;4.00;15.20;99.90;;;;;;5049556;28;11081;-73
2022/05/01 04:55:00;;;;;;;;;7.00;5.25;15.30;99.90;;;;;;5052086;28;11443;-73
2022/05/01 04:57:32;;;;;;;;;7.00;5.25;15.20;99.90;;;;;;5058943;28;11026;-73
2022/05/01 05:00:05;;;;;;;;;5.25;5.00;15.20;99.90;;;;;;5035930;28;11147;-73
2022/05/01 05:02:41;;;;;;;;;6.75;6.75;15.20;99.90;;;;;;5034078;28;11405;-73
2022/05/01 05:05:12;;;;;;;;;5.00;5.00;15.10;99.90;;;;;;5053416;28;11576;-65
2022/05/01 05:07:46;;;;;;;;;5.00;5.00;15.20;99.90;;;;;;5039572;28;11203;-65
2022/05/01 05:10:19;;;;;;;;;6.75;5.75;15.20;99.90;;;;;;5053590;28;11438;-65
2022/05/01 05:12:50;;;;;;;;;4.50;4.00;15.10;99.90;;;;;;5039784;28;11476;-65
2022/05/01 05:15:21;;;;;;;;;5.00;5.00;15.10;99.90;;;;;;5053058;28;11409;-65
2022/05/01 05:17:52;;;;;;;;;5.00;5.00;15.10;99.90;;;;;;5033074;28;11123;-65
2022/05/01 05:20:26;;;;;;;;;8.00;6.50;15.10;99.90;;;;;;5056611;28;11253;-65
2022/05/01 05:22:57;;;;;;;;;6.25;5.00;15.10;99.90;;;;;;5051446;28;12468;-65
2022/05/01 05:25:29;;;;;;;;;6.75;5.75;15.10;99.90;;;;;;5050436;28;11851;-65
2022/05/01 05:28:01;;;;;;;;;6.00;4.25;15.10;99.90;;;;;;5056212;28;11422;-65
2022/05/01 05:30:33;;;;;;;;;8.50;6.25;15.10;99.90;;;;;;5056057;28;11140;-65
2022/05/01 05:33:06;;;;;;;;;4.50;4.50;15.10;99.90;;;;;;5049607;28;11460;-66
2022/05/01 05:35:38;;;;;;;;;6.25;6.25;15.00;99.90;;;;;;5059958;28;11136;-73
2022/05/01 05:38:10;;;;;;;;;5.75;5.75;15.00;99.90;;;;;;5050653;28;11395;-73
2022/05/01 05:40:41;;;;;;;;;7.25;5.75;15.00;99.90;;;;;;5055466;28;11434;-72
2022/05/01 05:43:12;;;;;;;;;3.75;3.75;15.00;99.90;;;;;;5041446;28;11419;-73
2022/05/01 05:45:49;;;;;;;;;4.50;4.50;15.00;99.90;;;;;;5042194;28;11136;-65
2022/05/01 05:48:20;;;;;;;;;8.75;6.75;14.90;99.90;;;;;;5035375;28;12819;-66
2022/05/01 05:50:50;;;;;;;;;8.00;6.75;14.90;99.90;;;;;;5056100;28;11421;-72
2022/05/01 05:53:22;;;;;;;;;8.25;7.75;14.90;99.90;;;;;;5058167;28;12788;-73
2022/05/01 05:55:56;;;;;;;;;6.50;6.50;14.90;99.90;;;;;;5034600;28;11442;-66
2022/05/01 05:58:28;;;;;;;;;7.00;7.00;14.80;99.90;;;;;;5025095;28;11399;-65
2022/05/01 06:00:59;;;;;;;;;6.50;6.50;14.80;99.90;;;;;;5053618;28;11213;-65
2022/05/01 06:03:31;;;;;;;;;7.00;6.25;14.80;99.90;;;;;;5050435;28;11459;-65
2022/05/01 06:06:03;;;;;;;;;4.00;4.00;14.70;99.90;;;;;;5054612;28;11116;-72
2022/05/01 06:08:37;;;;;;;;;4.50;4.50;14.70;99.90;;;;;;5031493;28;11403;-72
2022/05/01 06:11:10;;;;;;;;;5.25;5.25;14.70;99.90;;;;;;5058216;28;11500;-73
2022/05/01 06:13:41;;;;;;;;;5.75;5.50;14.70;99.90;;;;;;5023264;28;11473;-74
2022/05/01 06:16:13;;;;;;;;;7.00;7.00;14.70;99.90;;;;;;5033477;28;11443;-72
2022/05/01 06:18:44;;;;;;;;;4.25;4.25;14.70;99.90;;;;;;5034231;28;11941;-74
2022/05/01 06:21:14;;;;;;;;;4.00;4.00;14.70;99.90;;;;;;5051368;28;11504;-74
2022/05/01 06:23:48;;;;;;;;;5.25;5.25;14.70;99.90;;;;;;5038340;28;11409;-73
2022/05/01 06:26:20;;;;;;;;;3.00;3.00;14.70;99.90;;;;;;5037471;28;11229;-65
2022/05/01 06:28:59;;;;;;;;;3.00;3.00;14.70;99.90;;;;;;5008405;28;11429;-65
2022/05/01 06:31:33;;;;;;;;;3.00;3.00;14.70;99.90;;;;;;5052024;28;11427;-65
2022/05/01 06:34:04;;;;;;;;;4.00;4.00;14.70;99.90;;;;;;5056318;28;11222;-65
2022/05/01 06:36:36;;;;;;;;;3.50;3.50;14.60;99.90;;;;;;5056115;28;11405;-73
2022/05/01 06:39:09;;;;;;;;;7.00;7.00;14.60;99.90;;;;;;5024728;28;11414;-74
2022/05/01 06:41:41;;;;;;;;;6.00;4.50;14.60;99.90;;;;;;5049837;28;11892;-73
2022/05/01 06:44:13;;;;;;;;;4.25;4.25;14.60;99.90;;;;;;5061808;28;11206;-65
2022/05/01 06:46:44;;;;;;;;;8.25;5.50;14.60;99.90;;;;;;5032210;28;11214;-64
2022/05/01 06:49:15;;;;;;;;;5.75;4.75;14.60;99.90;;;;;;5018964;28;11255;-72
2022/05/01 06:51:47;;;;;;;;;5.00;3.25;14.60;99.90;;;;;;5031417;28;11164;-73
2022/05/01 06:54:22;;;;;;;;;4.00;4.00;14.50;99.90;;;;;;5033873;28;11481;-72
2022/05/01 06:56:53;;;;;;;;;4.00;4.00;14.50;99.90;;;;;;5046216;28;11206;-73
2022/05/01 06:59:26;;;;;;;;;3.25;3.00;14.50;99.90;;;;;;5033349;28;11545;-73
2022/05/01 07:01:58;;;;;;;;;6.50;4.75;14.50;99.90;;;;;;5037695;28;11452;-74
2022/05/01 07:04:30;;;;;;;;;2.75;2.75;14.50;99.90;;;;;;5032013;28;11500;-73
2022/05/01 07:07:04;;;;;;;;;3.75;3.75;14.40;99.90;;;;;;5033505;28;11468;-73
2022/05/01 07:09:35;;;;;;;;;5.00;2.00;14.40;99.90;;;;;;5031870;28;11478;-72
2022/05/01 07:12:11;;;;;;;;;3.25;3.25;14.50;99.90;;;;;;5029454;28;11614;-73
2022/05/01 07:14:43;;;;;;;;;2.25;2.25;14.50;99.90;;;;;;5030042;28;11276;-74
2022/05/01 07:17:13;;;;;;;;;5.00;3.00;14.50;99.90;;;;;;5032290;28;11127;-73
2022/05/01 07:19:45;;;;;;;;;4.25;3.25;14.50;99.90;;;;;;5033264;28;11466;-66
2022/05/01 07:22:21;;;;;;;;;3.50;3.50;14.40;99.90;;;;;;5029906;28;11450;-65
2022/05/01 07:24:52;;;;;;;;;3.75;2.00;14.40;99.90;;;;;;5013369;28;12212;-73
2022/05/01 07:27:22;;;;;;;;;2.75;2.75;14.30;99.90;;;;;;5019448;28;11467;-74
2022/05/01 07:29:54;;;;;;;;;3.00;3.00;14.40;99.90;;;;;;5047095;28;11481;-73
2022/05/01 07:32:28;;;;;;;;;3.25;3.25;14.30;99.90;;;;;;5036175;28;11484;-74
2022/05/01 07:35:01;;;;;;;;;3.25;2.00;14.40;99.90;;;;;;5024524;28;11064;-66
2022/05/01 07:37:33;;;;;;;;;4.75;2.25;14.30;99.90;;;;;;5026521;28;10941;-66
2022/05/01 07:40:04;;;;;;;;;2.50;2.50;14.30;99.90;;;;;;5041517;28;12190;-73
2022/05/01 07:42:35;;;;;;;;;1.00;1.00;14.30;99.90;;;;;;5020035;28;11486;-73
2022/05/01 07:45:07;;;;;;;;;5.25;3.00;14.30;99.90;;;;;;5033965;28;11976;-72
2022/05/01 07:47:37;;;;;;;;;4.75;4.75;14.20;99.90;;;;;;5013675;28;11540;-73
2022/05/01 07:50:10;;;;;;;;;4.00;4.00;14.20;99.90;;;;;;5007878;28;12282;-73
2022/05/01 07:52:42;;;;;;;;;2.50;2.50;14.20;99.90;;;;;;4993016;28;11475;-72
2022/05/01 07:55:14;;;;;;;;;3.00;3.00;14.20;99.90;;;;;;5011562;28;11475;-72
2022/05/01 07:57:46;;;;;;;;;3.25;2.00;14.20;99.90;;;;;;4994892;28;11470;-72
2022/05/01 08:00:18;;;;;;;;;2.00;2.00;14.20;99.90;;;;;;5007491;28;11506;-72
2022/05/01 08:05:38;;;;;;;;;2.00;2.00;14.20;99.90;;;;;;5012148;28;11532;-73
2022/05/01 08:08:10;;;;;;;;;2.50;1.50;14.20;99.90;;;;;;5014154;28;11473;-73
2022/05/01 08:10:41;;;;;;;;;2.50;2.50;14.10;99.90;;;;;;5008259;28;11620;-73
2022/05/01 08:13:13;;;;;;;;;3.25;3.25;14.20;99.90;;;;;;5018048;28;12335;-73
2022/05/01 08:15:45;;;;;;;;;2.50;1.00;14.20;99.90;;;;;;5014280;28;11473;-66
2022/05/01 08:21:07;;;;;;;;;5.00;3.25;14.20;99.90;;;;;;5014420;28;11167;-73
2022/05/01 08:23:41;;;;;;;;;2.50;2.50;14.20;99.90;;;;;;4994474;28;11471;-74
2022/05/01 08:26:13;;;;;;;;;2.50;2.50;14.20;99.90;;;;;;5009122;28;11511;-72
2022/05/01 08:28:43;;;;;;;;;2.00;2.00;14.10;99.90;;;;;;5013151;28;11506;-73
2022/05/01 08:31:15;;;;;;;;;2.50;2.50;14.20;99.90;;;;;;5013700;28;11582;-73
2022/05/01 08:33:46;;;;;;;;;2.00;2.00;14.20;99.90;;;;;;5012462;28;11460;-73
2022/05/01 08:36:17;;;;;;;;;1.25;1.25;14.20;99.90;;;;;;5011077;28;11217;-65
2022/05/01 08:38:50;;;;;;;;;3.75;2.75;14.10;99.90;;;;;;5014102;28;11466;-65
2022/05/01 08:41:23;;;;;;;;;1.25;1.25;14.10;99.90;;;;;;5010145;28;11280;-66
2022/05/01 08:43:56;;;;;;;;;2.75;2.75;14.10;99.90;;;;;;5015699;28;11495;-64
2022/05/01 08:46:54;;;;;;;;;1.00;1.00;14.10;99.90;;;;;;5023282;28;12418;-73
2022/05/01 08:49:26;;;;;;;;;1.75;1.75;14.10;99.90;;;;;;5032317;28;11277;-65
2022/05/01 08:52:02;;;;;;;;;1.75;1.25;14.20;99.90;;;;;;5033546;28;12201;-64
2022/05/01 08:54:38;;;;;;;;;2.00;2.00;14.10;99.90;;;;;;5017518;28;11454;-73
2022/05/01 08:57:09;;;;;;;;;3.25;3.00;14.10;99.90;;;;;;5036180;28;11446;-73
2022/05/01 08:59:41;;;;;;;;;3.00;1.25;14.10;99.90;;;;;;5034423;28;11419;-73
2022/05/01 09:02:12;;;;;;;;;3.00;3.00;14.10;99.90;;;;;;5043699;28;11449;-74
2022/05/01 09:04:44;;;;;;;;;3.50;1.75;14.00;99.90;;;;;;5028124;28;11466;-65
2022/05/01 09:07:15;;;;;;;;;3.00;3.00;14.00;99.90;;;;;;5032187;28;11587;-65
2022/05/01 09:09:51;;;;;;;;;2.50;2.50;14.10;99.90;;;;;;5038544;28;11236;-66
2022/05/01 09:15:12;;;;;;;;;1.50;1.50;14.10;99.90;;;;;;5031207;28;12350;-72
2022/05/01 09:18:01;;;;;;;;;1.75;1.75;14.10;99.90;;;;;;5038930;28;11056;-74
2022/05/01 09:20:38;;;;;;;;;2.00;2.00;14.10;99.90;;;;;;5057505;28;11470;-72
2022/05/01 09:23:09;;;;;;;;;1.75;1.75;14.10;99.90;;;;;;5036300;28;11490;-72
2022/05/01 09:25:41;;;;;;;;;1.75;1.75;14.00;99.90;;;;;;5030777;28;11203;-64
2022/05/01 09:28:22;;;;;;;;;2.00;2.00;14.00;99.90;;;;;;5040968;28;11074;-65
2022/05/01 09:30:52;;;;;;;;;2.00;2.00;14.00;99.90;;;;;;5030403;28;11925;-73
2022/05/01 09:33:24;;;;;;;;;1.00;0.25;14.00;99.90;;;;;;5038352;28;10800;-72
2022/05/01 09:35:55;;;;;;;;;2.50;1.00;14.00;99.90;;;;;;5035201;28;11111;-66
2022/05/01 09:38:31;;;;;;;;;1.75;1.50;13.90;99.90;;;;;;5037553;28;11199;-64
2022/05/01 09:41:14;;;;;;;;;3.00;1.00;13.90;99.90;;;;;;5032838;28;11111;-73
2022/05/01 09:43:47;;;;;;;;;1.75;1.75;13.90;99.90;;;;;;5039345;28;11074;-72
2022/05/01 09:46:22;;;;;;;;;3.25;2.25;13.90;99.90;;;;;;5042367;28;11931;-65
2022/05/01 09:49:01;;;;;;;;;3.25;2.00;13.90;99.90;;;;;;5058805;28;11413;-65
2022/05/01 09:51:33;;;;;;;;;3.25;3.25;13.90;99.90;;;;;;5052236;28;11423;-73
2022/05/01 09:54:06;;;;;;;;;1.50;1.50;13.90;99.90;;;;;;5057251;28;11409;-73
2022/05/01 09:56:52;;;;;;;;;2.25;2.25;13.90;99.90;;;;;;5053374;28;11463;-72
2022/05/01 09:59:23;;;;;;;;;4.50;3.75;13.90;99.90;;;;;;5041009;28;11453;-64
2022/05/01 10:01:57;;;;;;;;;3.00;3.00;13.90;99.90;;;;;;5047490;28;11411;-65
2022/05/01 10:04:29;;;;;;;;;1.00;1.00;13.90;99.90;;;;;;5055216;28;12268;-64
2022/05/01 10:07:04;;;;;;;;;2.00;2.00;13.80;99.90;;;;;;5035588;28;11416;-65
2022/05/01 10:09:36;;;;;;;;;1.00;1.00;13.80;99.90;;;;;;5036801;28;11417;-73
2022/05/01 10:12:10;;;;;;;;;1.50;1.50;13.80;99.90;;;;;;5038313;28;11455;-72
2022/05/01 10:14:42;;;;;;;;;2.00;2.00;13.80;99.90;;;;;;5057054;28;11465;-73
2022/05/01 10:17:15;;;;;;;;;2.00;2.00;13.80;99.90;;;;;;5035754;28;11416;-73
2022/05/01 10:19:49;;;;;;;;;2.25;2.25;13.80;99.90;;;;;;5035242;28;11116;-72
2022/05/01 10:22:24;;;;;;;;;1.75;1.75;13.80;99.90;;;;;;5058024;28;11394;-73
2022/05/01 10:24:55;;;;;;;;;4.00;2.50;13.80;99.90;;;;;;5054273;28;11229;-65
2022/05/01 10:28:04;;;;;;;;;3.50;3.00;13.80;99.90;;;;;;5038448;28;11458;-65
2022/05/01 10:34:02;;;;;;;;;2.00;2.00;13.70;99.90;;;;;;5051680;28;12107;-72
2022/05/01 10:37:00;;;;;;;;;1.75;1.75;13.80;99.90;;;;;;5055416;28;11446;-72
2022/05/01 10:39:40;;;;;;;;;2.75;2.50;13.80;99.90;;;;;;5036906;28;11462;-64
2022/05/01 10:42:10;;;;;;;;;3.00;3.00;13.80;99.90;;;;;;5037670;28;11435;-65
2022/05/01 10:44:41;;;;;;;;;2.25;2.25;13.70;99.90;;;;;;5039808;28;11056;-64
2022/05/01 10:47:17;;;;;;;;;1.75;1.75;13.70;99.90;;;;;;5034237;28;11453;-65
2022/05/01 10:49:48;;;;;;;;;3.50;2.50;13.70;99.90;;;;;;5056233;28;12298;-64
2022/05/01 10:52:23;;;;;;;;;4.00;2.00;13.70;99.90;;;;;;5049466;28;11122;-64
2022/05/01 10:55:04;;;;;;;;;2.75;2.75;13.70;99.90;;;;;;5037694;28;11145;-72
2022/05/01 10:57:36;;;;;;;;;2.00;2.00;13.80;99.90;;;;;;5031460;28;11460;-73
2022/05/01 11:00:11;;;;;;;;;2.00;2.00;13.70;99.90;;;;;;5037383;28;11421;-73
2022/05/01 11:02:47;;;;;;;;;1.75;1.75;13.80;99.90;;;;;;5052416;28;11414;-72
2022/05/01 11:05:55;;;;;;;;;2.00;2.00;13.80;99.90;;;;;;5051456;28;11843;-65
2022/05/01 11:08:30;;;;;;;;;1.00;1.00;13.80;99.90;;;;;;5006870;28;11424;-65
2022/05/01 11:11:03;;;;;;;;;3.00;3.00;13.70;99.90;;;;;;5032767;28;11394;-73
2022/05/01 11:13:39;;;;;;;;;2.00;2.00;13.70;99.90;;;;;;5055804;28;11431;-72
2022/05/01 11:16:10;;;;;;;;;2.50;2.50;13.70;99.90;;;;;;5039380;28;11451;-72
2022/05/01 11:18:43;;;;;;;;;3.75;2.75;13.70;99.90;;;;;;5036418;28;11449;-73
2022/05/01 11:21:23;;;;;;;;;2.00;2.00;13.70;99.90;;;;;;5056748;28;11422;-73
2022/05/01 11:24:02;;;;;;;;;5.25;2.50;13.70;99.90;;;;;;5032154;28;11211;-73
2022/05/01 11:26:33;;;;;;;;;2.00;2.00;13.70;99.90;;;;;;5053095;28;12175;-65
2022/05/01 11:29:13;;;;;;;;;3.25;2.75;13.70;99.90;;;;;;5059271;28;11399;-66
2022/05/01 11:31:49;;;;;;;;;2.00;1.00;13.70;99.90;;;;;;5049794;28;11445;-64
2022/05/01 11:34:22;;;;;;;;;3.00;3.00;13.70;99.90;;;;;;5040403;28;11135;-66
2022/05/01 11:37:04;;;;;;;;;1.25;1.25;13.70;99.90;;;;;;5049174;28;11415;-66
2022/05/01 11:39:50;;;;;;;;;4.00;2.25;13.70;99.90;;;;;;5019068;28;11427;-65
2022/05/01 11:42:25;;;;;;;;;1.75;1.75;13.70;99.90;;;;;;5051563;28;11451;-66
2022/05/01 11:44:58;;;;;;;;;3.00;3.00;13.70;99.90;;;;;;5036933;28;11411;-72
2022/05/01 11:47:31;;;;;;;;;3.25;3.25;13.70;99.90;;;;;;5048112;28;11442;-73
2022/05/01 11:50:05;;;;;;;;;1.75;1.75;13.70;99.90;;;;;;5041201;28;11476;-65
2022/05/01 11:52:38;;;;;;;;;2.25;2.25;13.70;99.90;;;;;;5052737;28;11697;-66
2022/05/01 11:55:10;;;;;;;;;1.25;1.25;13.70;99.90;;;;;;5037642;28;11949;-64
2022/05/01 12:03:29;;;;;;;;;2.00;2.00;13.70;99.90;;;;;;5051679;28;11400;-65
2022/05/01 12:06:00;;;;;;;;;3.00;3.00;13.70;99.90;;;;;;5048359;28;11472;-73
2022/05/01 12:08:30;;;;;;;;;2.00;2.00;13.70;99.90;;;;;;5038104;28;11450;-72
2022/05/01 12:11:01;;;;;;;;;4.75;3.50;13.70;99.90;;;;;;5047810;28;11212;-73
2022/05/01 12:13:33;;;;;;;;;3.75;1.75;13.70;99.90;;;;;;5056809;28;11404;-73
2022/05/01 12:16:04;;;;;;;;;2.00;2.00;13.70;99.90;;;;;;5053803;28;11444;-65
2022/05/01 12:18:35;;;;;;;;;4.50;3.00;13.70;99.90;;;;;;5056855;28;11219;-64
2022/05/01 12:21:07;;;;;;;;;2.50;2.50;13.70;99.90;;;;;;5036338;28;12205;-65
2022/05/01 12:23:48;;;;;;;;;2.50;2.50;13.70;99.90;;;;;;5029313;28;11427;-65
2022/05/01 12:26:18;;;;;;;;;2.00;2.00;13.70;99.90;;;;;;5034566;28;11446;-73
2022/05/01 12:28:49;;;;;;;;;2.00;2.00;13.70;99.90;;;;;;5047704;28;11205;-73
2022/05/01 12:31:20;;;;;;;;;2.00;2.00;13.70;99.90;;;;;;5034654;28;11416;-65
2022/05/01 12:33:53;;;;;;;;;5.00;3.25;13.70;99.90;;;;;;5033227;28;11391;-64
2022/05/01 12:36:27;;;;;;;;;3.00;1.75;13.70;99.90;;;;;;5035780;28;12182;-64
2022/05/01 12:39:05;;;;;;;;;4.00;2.50;13.70;99.90;;;;;;5031885;28;11461;-65
2022/05/01 12:45:02;;;;;;;;;2.75;2.75;13.70;99.90;;;;;;5055147;28;11458;-65
2022/05/01 12:47:36;;;;;;;;;2.25;2.25;13.70;99.90;;;;;;5013411;28;11423;-65
2022/05/01 12:50:11;;;;;;;;;4.00;4.00;13.70;99.90;;;;;;5057620;28;11463;-72
2022/05/01 12:52:41;;;;;;;;;3.25;2.00;13.70;99.90;;;;;;5040467;28;11403;-73
2022/05/01 12:55:20;;;;;;;;;5.50;3.75;13.70;99.90;;;;;;5052419;28;11408;-65
2022/05/01 12:57:52;;;;;;;;;2.00;2.00;13.70;99.90;;;;;;5044845;28;11451;-67
2022/05/01 13:00:43;;;;;;;;;1.00;1.00;13.70;99.90;;;;;;5052329;28;11419;-72
2022/05/01 13:03:40;;;;;;;;;2.25;2.25;13.70;99.90;;;;;;5056337;28;11411;-72
2022/05/01 13:06:15;;;;;;;;;3.25;3.25;13.70;99.90;;;;;;5053345;28;11158;-65
2022/05/01 13:08:58;;;;;;;;;2.00;2.00;13.60;99.90;;;;;;5058313;28;11437;-65
2022/05/01 13:11:32;;;;;;;;;3.00;2.75;13.60;99.90;;;;;;5053530;28;12420;-73
2022/05/01 13:14:09;;;;;;;;;4.00;2.50;13.60;99.90;;;;;;5059886;28;12261;-73
2022/05/01 13:16:47;;;;;;;;;3.00;3.00;13.60;99.90;;;;;;5042458;28;12594;-65
2022/05/01 13:19:22;;;;;;;;;2.50;2.50;13.50;99.90;;;;;;5042085;28;11489;-65
2022/05/01 13:21:55;;;;;;;;;2.75;2.75;13.60;99.90;;;;;;5041535;28;12229;-65
2022/05/01 13:24:32;;;;;;;;;2.50;2.50;13.60;99.90;;;;;;5052440;28;11426;-73
2022/05/01 13:27:09;;;;;;;;;3.00;3.00;13.50;99.90;;;;;;5038564;28;11417;-72
2022/05/01 13:29:42;;;;;;;;;2.50;2.50;13.50;99.90;;;;;;5058224;28;11450;-65
2022/05/01 13:32:19;;;;;;;;;5.75;3.50;13.50;99.90;;;;;;5037096;28;12216;-65
2022/05/01 13:34:51;;;;;;;;;4.75;4.75;13.50;99.90;;;;;;5025163;28;11428;-64
2022/05/01 13:37:22;;;;;;;;;5.50;2.00;13.50;99.90;;;;;;5039305;28;11434;-64
2022/05/01 13:45:35;;;;;;;;;2.25;2.25;13.50;99.90;;;;;;5055921;28;11397;-72
2022/05/01 13:48:06;;;;;;;;;3.00;2.00;13.40;99.90;;;;;;5045488;28;11131;-72
2022/05/01 13:50:39;;;;;;;;;2.25;2.25;13.40;99.90;;;;;;5037577;28;11438;-65
2022/05/01 13:53:13;;;;;;;;;3.00;3.00;13.40;99.90;;;;;;5042150;28;11393;-65
2022/05/01 13:55:45;;;;;;;;;3.00;3.00;13.40;99.90;;;;;;5051934;28;11405;-64
2022/05/01 13:58:16;;;;;;;;;3.00;2.50;13.40;99.90;;;;;;5035203;28;11389;-65